createdAt,value
2023-04-10T00:00:21.507Z,17.57
2023-04-10T00:02:50.210Z,17.30
2023-04-10T00:05:23.357Z,18.57
2023-04-10T00:07:52.256Z,22.42
2023-04-10T00:10:22.154Z,20.48
2023-04-10T00:12:52.969Z,19.45
2023-04-10T00:15:21.277Z,18.23
2023-04-10T00:17:51.516Z,16.80
2023-04-10T00:20:19.896Z,18.47
2023-04-10T00:22:48.447Z,19.73
2023-04-10T00:25:17.016Z,17.27
2023-04-10T00:27:45.595Z,18.67
2023-04-10T00:30:14.098Z,17.87
2023-04-10T00:32:43.881Z,17.75
2023-04-10T00:35:12.406Z,17.20
2023-04-10T00:37:41.787Z,22.00
2023-04-10T00:40:10.564Z,19.20
2023-04-10T00:42:39.760Z,18.03
2023-04-10T00:45:08.474Z,19.40
2023-04-10T00:47:37.950Z,17.73
2023-04-10T00:50:06.541Z,17.80
2023-04-10T00:52:35.851Z,18.50
2023-04-10T00:55:05.682Z,19.85
2023-04-10T00:57:34.303Z,19.87
2023-04-10T01:00:04.761Z,20.00
2023-04-10T01:02:33.642Z,18.77
2023-04-10T01:05:02.492Z,18.48
2023-04-10T01:07:50.907Z,17.83
2023-04-10T01:10:20.942Z,17.17
2023-04-10T01:12:51.087Z,16.83
2023-04-10T01:15:20.785Z,16.27
2023-04-10T01:17:59.757Z,17.37
2023-04-10T01:20:30.144Z,17.37
2023-04-10T01:23:00.513Z,17.03
2023-04-10T01:25:42.677Z,17.03
2023-04-10T01:28:13.133Z,17.83
2023-04-10T01:30:42.267Z,17.37
2023-04-10T01:33:12.150Z,17.60
2023-04-10T01:35:42.542Z,17.63
2023-04-10T01:38:11.686Z,17.03
2023-04-10T01:40:42.162Z,16.60
2023-04-10T01:43:12.441Z,15.40
2023-04-10T01:45:46.679Z,15.97
2023-04-10T01:48:16.767Z,16.30
2023-04-10T01:50:45.985Z,17.83
2023-04-10T01:53:15.731Z,13.63
2023-04-10T01:55:44.764Z,14.20
2023-04-10T01:58:14.028Z,14.87
2023-04-10T02:00:43.969Z,13.27
2023-04-10T02:03:12.990Z,13.97
2023-04-10T02:05:55.189Z,11.77
2023-04-10T02:08:34.196Z,13.93
2023-04-10T02:11:21.081Z,13.88
2023-04-10T02:13:54.053Z,13.77
2023-04-10T02:16:23.015Z,14.33
2023-04-10T02:18:52.358Z,13.25
2023-04-10T02:21:20.811Z,13.13
2023-04-10T02:23:49.372Z,14.07
2023-04-10T02:26:17.861Z,14.70
2023-04-10T02:28:46.366Z,12.17
2023-04-10T02:31:14.771Z,22.57
2023-04-10T02:33:43.364Z,14.07
2023-04-10T02:36:12.970Z,12.20
2023-04-10T02:38:41.480Z,12.67
2023-04-10T02:41:10.476Z,12.77
2023-04-10T02:43:39.054Z,11.33
2023-04-10T02:46:07.922Z,13.80
2023-04-10T02:48:37.787Z,15.87
2023-04-10T02:51:07.589Z,13.20
2023-04-10T02:53:36.753Z,13.60
2023-04-10T02:56:06.666Z,14.37
2023-04-10T02:58:36.068Z,15.10
2023-04-10T03:01:06.874Z,13.90
2023-04-10T03:06:14.413Z,13.18
2023-04-10T03:08:44.293Z,12.63
2023-04-10T03:11:12.925Z,13.93
2023-04-10T03:13:41.596Z,15.63
2023-04-10T03:16:10.502Z,14.80
2023-04-10T03:18:39.728Z,14.18
2023-04-10T03:21:08.174Z,13.63
2023-04-10T03:23:37.073Z,16.42
2023-04-10T03:26:05.701Z,14.67
2023-04-10T03:28:36.651Z,14.90
2023-04-10T03:31:06.112Z,13.50
2023-04-10T03:36:05.294Z,13.88
2023-04-10T03:38:34.254Z,18.90
2023-04-10T03:41:03.314Z,14.57
2023-04-10T03:43:33.276Z,13.83
2023-04-10T03:46:02.269Z,14.73
2023-04-10T03:48:30.559Z,14.87
2023-04-10T03:50:59.413Z,15.03
2023-04-10T03:53:28.151Z,14.93
2023-04-10T03:55:56.764Z,19.83
2023-04-10T03:58:25.995Z,15.58
2023-04-10T04:00:55.329Z,15.13
2023-04-10T04:03:28.218Z,17.00
2023-04-10T04:06:15.178Z,18.33
2023-04-10T04:08:45.271Z,16.40
2023-04-10T04:11:33.940Z,14.80
2023-04-10T04:14:04.963Z,15.60
2023-04-10T04:16:41.157Z,14.70
2023-04-10T04:19:27.634Z,17.30
2023-04-10T04:22:14.151Z,19.90
2023-04-10T04:24:44.135Z,27.57
2023-04-10T04:27:16.983Z,14.33
2023-04-10T04:29:50.473Z,15.85
2023-04-10T04:32:26.799Z,16.53
2023-04-10T04:34:56.794Z,22.23
2023-04-10T04:37:43.790Z,15.18
2023-04-10T04:40:19.826Z,15.30
2023-04-10T04:42:59.021Z,12.60
2023-04-10T04:45:35.140Z,14.47
2023-04-10T04:48:07.860Z,14.13
2023-04-10T04:50:53.167Z,15.25
2023-04-10T04:53:41.617Z,15.13
2023-04-10T04:56:30.482Z,16.05
2023-04-10T04:59:06.413Z,16.47
2023-04-10T05:01:53.231Z,14.97
2023-04-10T05:04:29.635Z,19.83
2023-04-10T05:07:05.999Z,14.53
2023-04-10T05:09:36.653Z,14.63
2023-04-10T05:12:23.306Z,25.23
2023-04-10T05:14:56.482Z,14.17
2023-04-10T05:17:29.855Z,15.53
2023-04-10T05:20:06.716Z,14.60
2023-04-10T05:22:53.197Z,18.40
2023-04-10T05:25:38.460Z,14.53
2023-04-10T05:28:11.612Z,15.70
2023-04-10T05:30:58.877Z,16.40
2023-04-10T05:33:41.052Z,16.17
2023-04-10T05:36:26.619Z,17.50
2023-04-10T05:39:13.453Z,18.23
2023-04-10T05:41:49.582Z,20.53
2023-04-10T05:44:28.700Z,17.80
2023-04-10T05:47:07.816Z,21.37
2023-04-10T05:49:37.725Z,20.53
2023-04-10T05:52:24.342Z,18.37
2023-04-10T05:55:03.642Z,19.67
2023-04-10T05:57:51.359Z,19.95
2023-04-10T06:00:38.010Z,21.63
2023-04-10T06:03:26.795Z,21.60
2023-04-10T06:05:58.305Z,22.67
2023-04-10T06:08:26.892Z,18.97
2023-04-10T06:10:55.423Z,19.83
2023-04-10T06:13:24.230Z,23.00
2023-04-10T06:15:54.499Z,22.48
2023-04-10T06:18:23.029Z,24.93
2023-04-10T06:20:51.538Z,22.20
2023-04-10T06:23:21.121Z,21.87
2023-04-10T06:25:50.474Z,24.10
2023-04-10T06:28:19.450Z,24.27
2023-04-10T06:30:49.152Z,23.33
2023-04-10T06:33:17.812Z,29.27
2023-04-10T06:35:47.115Z,25.53
2023-04-10T06:38:15.715Z,24.57
2023-04-10T06:40:44.802Z,27.80
2023-04-10T06:43:13.218Z,24.83
2023-04-10T06:45:42.164Z,23.18
2023-04-10T06:48:10.377Z,24.73
2023-04-10T06:50:39.024Z,21.83
2023-04-10T06:53:07.538Z,24.30
2023-04-10T06:55:37.511Z,22.80
2023-04-10T06:58:05.928Z,20.67
2023-04-10T07:00:34.605Z,23.47
2023-04-10T07:03:03.232Z,21.57
2023-04-10T07:05:31.960Z,19.30
2023-04-10T07:08:00.474Z,20.43
2023-04-10T07:10:29.109Z,21.23
2023-04-10T07:12:58.836Z,21.42
2023-04-10T07:15:27.339Z,19.67
2023-04-10T07:17:56.473Z,21.07
2023-04-10T07:20:25.081Z,23.03
2023-04-10T07:22:53.597Z,22.47
2023-04-10T07:25:21.932Z,20.23
2023-04-10T07:27:50.484Z,20.47
2023-04-10T07:30:20.137Z,19.77
2023-04-10T07:32:48.824Z,20.70
2023-04-10T07:35:17.645Z,20.60
2023-04-10T07:37:48.073Z,19.05
2023-04-10T07:40:16.596Z,17.50
2023-04-10T07:42:45.911Z,19.13
2023-04-10T07:45:14.174Z,18.30
2023-04-10T07:47:42.711Z,18.47
2023-04-10T07:50:11.285Z,18.07
2023-04-10T07:52:39.888Z,15.90
2023-04-10T07:55:08.459Z,15.10
2023-04-10T07:57:36.990Z,14.90
2023-04-10T08:00:05.635Z,17.77
2023-04-10T08:02:36.113Z,15.63
2023-04-10T08:05:05.553Z,15.98
2023-04-10T08:07:35.866Z,15.67
2023-04-10T08:10:04.620Z,15.87
2023-04-10T08:12:36.976Z,17.42
2023-04-10T08:15:06.244Z,15.87
2023-04-10T08:17:34.849Z,15.53
2023-04-10T08:20:04.799Z,14.60
2023-04-10T08:22:33.582Z,15.58
2023-04-10T08:25:02.508Z,14.73
2023-04-10T08:27:31.090Z,13.80
2023-04-10T08:29:59.628Z,15.90
2023-04-10T08:32:29.003Z,15.37
2023-04-10T08:34:57.982Z,14.23
2023-04-10T08:37:26.889Z,14.00
2023-04-10T08:39:55.792Z,13.40
2023-04-10T08:42:25.176Z,14.23
2023-04-10T08:44:53.992Z,13.53
2023-04-10T08:47:23.832Z,13.43
2023-04-10T08:49:57.359Z,13.65
2023-04-10T08:52:26.652Z,13.07
2023-04-10T08:54:56.087Z,12.40
2023-04-10T08:57:26.908Z,11.97
2023-04-10T08:59:55.731Z,11.70
2023-04-10T09:02:25.544Z,12.13
2023-04-10T09:04:57.142Z,12.67
2023-04-10T09:07:27.122Z,12.95
2023-04-10T09:09:55.952Z,12.17
2023-04-10T09:12:24.408Z,13.07
2023-04-10T09:14:53.548Z,13.65
2023-04-10T09:17:23.143Z,12.23
2023-04-10T09:19:53.432Z,10.60
2023-04-10T09:22:32.136Z,11.23
2023-04-10T09:25:01.263Z,10.20
2023-04-10T09:27:32.314Z,10.90
2023-04-10T09:30:01.300Z,12.33
2023-04-10T09:32:40.675Z,10.20
2023-04-10T09:35:10.102Z,10.83
2023-04-10T09:40:25.746Z,10.03
2023-04-10T09:42:57.313Z,9.08
2023-04-10T09:45:25.522Z,9.50
2023-04-10T09:48:04.463Z,8.55
2023-04-10T09:50:40.855Z,8.10
2023-04-10T09:53:10.335Z,10.00
2023-04-10T09:55:39.203Z,8.80
2023-04-10T09:58:08.011Z,8.70
2023-04-10T10:00:38.297Z,8.95
2023-04-10T10:03:08.776Z,9.33
2023-04-10T10:05:38.657Z,8.43
2023-04-10T10:08:08.077Z,8.30
2023-04-10T10:10:38.156Z,8.63
2023-04-10T10:13:07.756Z,9.77
2023-04-10T10:15:40.817Z,9.28
2023-04-10T10:18:27.554Z,9.53
2023-04-10T10:20:56.448Z,8.70
2023-04-10T10:23:25.767Z,8.58
2023-04-10T10:25:55.811Z,10.00
2023-04-10T10:28:25.249Z,9.97
2023-04-10T10:30:54.034Z,9.53
2023-04-10T10:33:22.710Z,8.35
2023-04-10T10:35:51.471Z,9.13
2023-04-10T10:38:20.240Z,9.17
2023-04-10T10:41:08.175Z,8.83
2023-04-10T10:43:38.179Z,8.20
2023-04-10T10:46:11.558Z,8.17
2023-04-10T10:48:40.087Z,8.20
2023-04-10T10:51:08.595Z,8.30
2023-04-10T10:53:40.841Z,8.83
2023-04-10T10:56:26.635Z,9.60
2023-04-10T10:59:01.760Z,9.85
2023-04-10T11:01:30.321Z,9.00
2023-04-10T11:03:59.990Z,8.23
2023-04-10T11:06:30.573Z,7.33
2023-04-10T11:08:59.169Z,7.37
2023-04-10T11:11:27.846Z,7.90
2023-04-10T11:13:57.996Z,7.90
2023-04-10T11:16:35.641Z,7.60
2023-04-10T11:19:15.012Z,7.75
2023-04-10T11:21:37.265Z,7.43
2023-04-10T11:24:06.099Z,6.57
2023-04-10T11:26:42.513Z,7.60
2023-04-10T11:29:15.612Z,7.77
2023-04-10T11:31:45.399Z,7.50
2023-04-10T11:34:15.745Z,7.90
2023-04-10T11:36:49.227Z,7.58
2023-04-10T11:39:18.565Z,7.17
2023-04-10T11:41:48.158Z,6.67
2023-04-10T11:44:19.831Z,7.13
2023-04-10T11:46:50.347Z,6.93
2023-04-10T11:49:19.695Z,7.50
2023-04-10T11:51:49.115Z,8.77
2023-04-10T11:54:21.833Z,7.90
2023-04-10T11:57:01.197Z,7.05
2023-04-10T11:59:30.314Z,8.43
2023-04-10T12:02:12.858Z,6.87
2023-04-10T12:04:42.700Z,7.37
2023-04-10T12:07:11.401Z,7.37
2023-04-10T12:09:40.654Z,7.72
2023-04-10T12:12:09.154Z,7.93
2023-04-10T12:14:39.349Z,7.83
2023-04-10T12:17:08.402Z,6.47
2023-04-10T12:19:37.469Z,7.30
2023-04-10T12:22:06.571Z,7.20
2023-04-10T12:24:43.431Z,7.77
2023-04-10T12:27:26.653Z,7.95
2023-04-10T12:29:59.158Z,9.40
2023-04-10T12:32:27.891Z,7.40
2023-04-10T12:35:03.504Z,7.78
2023-04-10T12:37:51.303Z,7.63
2023-04-10T12:40:20.699Z,7.83
2023-04-10T12:42:49.382Z,7.63
2023-04-10T12:45:17.638Z,8.07
2023-04-10T12:47:51.860Z,7.60
2023-04-10T12:50:21.029Z,8.27
2023-04-10T12:53:03.137Z,8.53
2023-04-10T12:55:31.656Z,8.23
2023-04-10T12:58:01.780Z,7.57
2023-04-10T13:00:30.299Z,8.27
2023-04-10T13:02:58.910Z,8.43
2023-04-10T13:05:27.625Z,8.93
2023-04-10T13:07:56.101Z,7.93
2023-04-10T13:10:24.872Z,8.63
2023-04-10T13:12:53.358Z,8.23
2023-04-10T13:15:21.617Z,9.40
2023-04-10T13:17:50.146Z,8.60
2023-04-10T13:20:18.683Z,8.40
2023-04-10T13:22:47.277Z,7.93
2023-04-10T13:25:15.498Z,9.10
2023-04-10T13:27:44.082Z,8.00
2023-04-10T13:30:12.630Z,9.20
2023-04-10T13:32:41.087Z,8.57
2023-04-10T13:35:09.467Z,8.77
2023-04-10T13:37:38.382Z,8.40
2023-04-10T13:40:07.613Z,7.50
2023-04-10T13:42:38.813Z,6.97
2023-04-10T13:45:06.235Z,7.57
2023-04-10T13:47:35.212Z,6.80
2023-04-10T13:50:04.784Z,7.65
2023-04-10T13:52:33.371Z,7.90
2023-04-10T13:55:02.181Z,6.85
2023-04-10T13:57:30.880Z,8.10
2023-04-10T13:59:59.484Z,7.40
2023-04-10T14:02:28.113Z,5.73
2023-04-10T14:04:56.819Z,5.60
2023-04-10T14:07:25.362Z,5.63
2023-04-10T14:09:53.878Z,7.47
2023-04-10T14:12:22.978Z,6.33
2023-04-10T14:14:51.777Z,6.05
2023-04-10T14:17:20.001Z,6.17
2023-04-10T14:19:50.087Z,6.73
2023-04-10T14:22:18.739Z,5.77
2023-04-10T14:24:47.562Z,5.35
2023-04-10T14:27:16.613Z,5.40
2023-04-10T14:29:54.401Z,5.03
2023-04-10T14:32:15.379Z,5.43
2023-04-10T14:34:43.898Z,5.70
2023-04-10T14:37:14.131Z,4.87
2023-04-10T14:39:42.066Z,6.37
2023-04-10T14:42:10.643Z,5.77
2023-04-10T14:44:39.174Z,5.57
2023-04-10T14:47:07.907Z,5.23
2023-04-10T14:49:36.373Z,5.60
2023-04-10T14:52:05.021Z,5.83
2023-04-10T14:54:33.565Z,5.80
2023-04-10T14:57:02.334Z,5.70
2023-04-10T14:59:31.578Z,6.07
2023-04-10T15:02:00.667Z,6.17
2023-04-10T15:04:29.159Z,6.13
2023-04-10T15:06:58.011Z,7.17
2023-04-10T15:09:26.492Z,5.77
2023-04-10T15:11:56.534Z,6.03
2023-04-10T15:14:24.739Z,5.97
2023-04-10T15:16:54.131Z,5.83
2023-04-10T15:19:22.826Z,5.40
2023-04-10T15:21:51.305Z,6.23
2023-04-10T15:24:19.809Z,5.83
2023-04-10T15:26:48.579Z,5.25
2023-04-10T15:29:16.778Z,4.63
2023-04-10T15:31:45.329Z,5.30
2023-04-10T15:34:13.657Z,4.63
2023-04-10T15:36:47.612Z,5.00
2023-04-10T15:39:16.100Z,4.80
2023-04-10T15:41:44.601Z,4.90
2023-04-10T15:44:13.607Z,5.35
2023-04-10T15:46:43.130Z,5.20
2023-04-10T15:49:11.551Z,5.13
2023-04-10T15:51:40.371Z,4.25
2023-04-10T15:54:09.092Z,4.37
2023-04-10T15:56:38.018Z,4.80
2023-04-10T15:59:06.565Z,4.43
2023-04-10T16:01:35.468Z,5.22
2023-04-10T16:04:05.389Z,4.58
2023-04-10T16:06:35.080Z,4.47
2023-04-10T16:09:12.454Z,5.08
2023-04-10T16:11:34.982Z,3.70
2023-04-10T16:14:03.553Z,4.23
2023-04-10T16:16:32.245Z,4.27
2023-04-10T16:19:01.819Z,4.80
2023-04-10T16:21:31.386Z,5.03
2023-04-10T16:24:00.783Z,5.23
2023-04-10T16:26:29.336Z,3.90
2023-04-10T16:28:57.812Z,4.83
2023-04-10T16:31:26.343Z,4.80
2023-04-10T16:33:54.964Z,4.07
2023-04-10T16:36:23.454Z,4.30
2023-04-10T16:38:51.960Z,3.80
2023-04-10T16:41:21.001Z,4.53
2023-04-10T16:43:50.076Z,3.85
2023-04-10T16:46:18.627Z,4.50
2023-04-10T16:48:47.180Z,4.47
2023-04-10T16:51:17.339Z,4.07
2023-04-10T16:53:45.902Z,4.20
2023-04-10T16:56:14.477Z,4.03
2023-04-10T16:58:43.086Z,4.30
2023-04-10T17:01:18.879Z,3.50
2023-04-10T17:03:49.158Z,4.67
2023-04-10T17:06:17.699Z,4.23
2023-04-10T17:08:46.667Z,4.67
2023-04-10T17:11:16.029Z,3.53
2023-04-10T17:13:44.839Z,4.50
2023-04-10T17:16:13.048Z,4.43
2023-04-10T17:18:41.609Z,4.53
2023-04-10T17:21:13.341Z,5.10
2023-04-10T17:23:42.151Z,4.30
2023-04-10T17:26:14.685Z,5.37
2023-04-10T17:28:46.879Z,4.87
2023-04-10T17:31:15.934Z,5.30
2023-04-10T17:33:44.700Z,4.60
2023-04-10T17:36:13.804Z,5.97
2023-04-10T17:38:42.829Z,5.83
2023-04-10T17:41:12.917Z,5.72
2023-04-10T17:43:41.242Z,5.67
2023-04-10T17:46:11.371Z,6.82
2023-04-10T17:48:39.652Z,5.70
2023-04-10T17:51:08.285Z,6.87
2023-04-10T17:53:36.876Z,5.53
2023-04-10T17:56:05.439Z,5.97
2023-04-10T17:58:33.958Z,5.60
2023-04-10T18:01:02.589Z,6.27
2023-04-10T18:03:31.508Z,7.53
2023-04-10T18:06:00.096Z,7.10
2023-04-10T18:08:28.573Z,5.60
2023-04-10T18:10:57.107Z,6.10
2023-04-10T18:13:25.718Z,5.30
2023-04-10T18:15:54.282Z,6.13
2023-04-10T18:18:22.690Z,5.93
2023-04-10T18:20:51.201Z,4.80
2023-04-10T18:23:19.870Z,4.67
2023-04-10T18:25:52.051Z,5.28
2023-04-10T18:28:21.036Z,4.80
2023-04-10T18:30:49.772Z,5.40
2023-04-10T18:33:19.937Z,5.50
2023-04-10T18:35:48.766Z,5.30
2023-04-10T18:38:17.160Z,5.50
2023-04-10T18:40:45.912Z,5.90
2023-04-10T18:43:14.482Z,6.22
2023-04-10T18:45:43.321Z,6.10
2023-04-10T18:48:11.596Z,5.80
2023-04-10T18:50:40.287Z,9.97
2023-04-10T18:53:08.977Z,9.27
2023-04-10T18:55:37.492Z,11.97
2023-04-10T18:58:06.074Z,11.23
2023-04-10T19:00:34.725Z,9.83
2023-04-10T19:03:03.472Z,12.43
2023-04-10T19:05:34.890Z,12.75
2023-04-10T19:08:04.976Z,12.93
2023-04-10T19:10:33.921Z,13.07
2023-04-10T19:13:02.429Z,13.10
2023-04-10T19:15:31.267Z,12.67
2023-04-10T19:17:59.763Z,14.17
2023-04-10T19:20:49.740Z,13.50
2023-04-10T19:22:58.419Z,13.40
2023-04-10T19:25:26.996Z,13.20
2023-04-10T19:27:55.505Z,14.17
2023-04-10T19:30:23.802Z,14.73
2023-04-10T19:32:53.248Z,15.00
2023-04-10T19:35:22.506Z,17.90
2023-04-10T19:37:51.353Z,19.90
2023-04-10T19:40:19.618Z,17.43
2023-04-10T19:42:48.110Z,19.57
2023-04-10T19:45:16.725Z,18.03
2023-04-10T19:47:45.683Z,14.63
2023-04-10T19:50:14.166Z,15.67
2023-04-10T19:52:42.965Z,16.45
2023-04-10T19:55:11.459Z,15.20
2023-04-10T19:57:40.951Z,14.90
2023-04-10T20:00:09.994Z,13.22
2023-04-10T20:02:42.381Z,14.18
2023-04-10T20:05:11.173Z,15.10
2023-04-10T20:07:39.768Z,13.37
2023-04-10T20:10:08.616Z,15.17
2023-04-10T20:12:37.135Z,14.30
2023-04-10T20:15:05.930Z,13.50
2023-04-10T20:17:34.750Z,15.03
2023-04-10T20:20:03.381Z,12.23
2023-04-10T20:22:31.914Z,12.13
2023-04-10T20:25:00.735Z,12.37
2023-04-10T20:27:29.271Z,13.53
2023-04-10T20:29:58.104Z,13.60
2023-04-10T20:32:26.647Z,13.60
2023-04-10T20:34:55.584Z,13.10
2023-04-10T20:37:24.096Z,12.17
2023-04-10T20:39:52.672Z,11.30
2023-04-10T20:42:21.126Z,12.83
2023-04-10T20:44:50.320Z,12.15
2023-04-10T20:47:18.856Z,11.22
2023-04-10T20:49:47.381Z,12.70
2023-04-10T20:52:16.014Z,12.57
2023-04-10T20:54:44.541Z,13.53
2023-04-10T20:57:12.921Z,13.43
2023-04-10T20:59:41.487Z,12.70
2023-04-10T21:02:10.209Z,13.00
2023-04-10T21:04:39.140Z,13.23
2023-04-10T21:07:07.519Z,13.57
2023-04-10T21:09:36.101Z,13.13
2023-04-10T21:12:05.722Z,14.58
2023-04-10T21:14:35.613Z,16.17
2023-04-10T21:17:05.304Z,15.78
2023-04-10T21:19:33.857Z,14.43
2023-04-10T21:22:02.662Z,13.62
2023-04-10T21:24:31.432Z,13.70
2023-04-10T21:27:00.026Z,13.67
2023-04-10T21:29:28.575Z,12.77
2023-04-10T21:31:57.286Z,11.87
2023-04-10T21:34:26.145Z,12.20
2023-04-10T21:36:56.249Z,13.57
2023-04-10T21:39:24.721Z,12.93
2023-04-10T21:41:53.229Z,12.60
2023-04-10T21:44:21.735Z,13.03
2023-04-10T21:46:50.337Z,13.53
2023-04-10T21:49:18.876Z,14.80
2023-04-10T21:51:47.340Z,16.27
2023-04-10T21:54:15.732Z,15.17
2023-04-10T21:56:44.230Z,14.97
2023-04-10T21:59:13.042Z,14.15
2023-04-10T22:01:41.780Z,14.10
2023-04-10T22:04:10.627Z,13.87
2023-04-10T22:06:39.245Z,12.87
2023-04-10T22:09:07.765Z,13.60
2023-04-10T22:11:38.206Z,13.13
2023-04-10T22:14:15.412Z,13.17
2023-04-10T22:16:37.153Z,13.87
2023-04-10T22:19:06.081Z,13.50
2023-04-10T22:21:34.577Z,15.50
2023-04-10T22:24:03.559Z,18.12
2023-04-10T22:26:33.290Z,17.23
2023-04-10T22:29:01.791Z,18.53
2023-04-10T22:31:31.006Z,17.02
2023-04-10T22:33:59.633Z,16.37
2023-04-10T22:36:33.903Z,16.77
2023-04-10T22:39:02.681Z,16.77
2023-04-10T22:41:32.646Z,16.73
2023-04-10T22:44:01.256Z,18.80
2023-04-10T22:46:29.812Z,17.43
2023-04-10T22:48:58.713Z,16.37
2023-04-10T22:51:27.302Z,16.10
2023-04-10T22:53:56.950Z,15.15
2023-04-10T22:56:27.074Z,15.57
2023-04-10T22:58:55.420Z,14.93
2023-04-10T23:01:23.795Z,16.30
2023-04-10T23:03:54.187Z,16.47
2023-04-10T23:06:22.739Z,16.50
2023-04-10T23:08:54.501Z,17.03
2023-04-10T23:11:23.059Z,16.47
2023-04-10T23:13:51.837Z,17.17
2023-04-10T23:16:20.382Z,16.33
2023-04-10T23:18:50.308Z,16.10
2023-04-10T23:21:19.686Z,15.50
2023-04-10T23:23:48.233Z,17.73
2023-04-10T23:26:16.726Z,18.37
2023-04-10T23:28:45.227Z,19.27
2023-04-10T23:31:13.584Z,17.80
2023-04-10T23:33:42.202Z,20.97
2023-04-10T23:36:11.081Z,23.47
2023-04-10T23:38:39.650Z,21.83
2023-04-10T23:41:08.055Z,21.93
2023-04-10T23:43:36.854Z,23.45
2023-04-10T23:46:05.299Z,22.17
2023-04-10T23:48:33.859Z,20.23
2023-04-10T23:51:09.013Z,19.97
2023-04-10T23:53:37.510Z,20.50
2023-04-10T23:56:07.699Z,21.47
2023-04-10T23:58:36.524Z,21.62
